Time;durP1;ratioP1;P1;durP2;ratioP2;P2;SDS_P1;SDS_P2;PMS_P1;PMS_P2;Temp;Humidity;BMP_temperature;BMP_pressure;BME280_temperature;BME280_humidity;BME280_pressure;Samples;Min_cycle;Max_cycle;Signal;HPM_P1;HPM_P2
2022/05/15 00:00:51;;;;;;;;;;;;;;;;;;6183268;23;19985;-70
2022/05/15 00:03:17;;;;;;;;;;;;;;;;;;6156724;23;19904;-70
2022/05/15 00:05:42;;;;;;;;;;;;;;;;;;6183383;23;19912;-70
2022/05/15 00:08:09;;;;;;;;;;;;;;;;;;6182881;23;19994;-70
2022/05/15 00:10:35;;;;;;;;;;;;;;;;;;6183233;23;19907;-70
2022/05/15 00:13:01;;;;;;;;;;;;;;;;;;6183649;23;19901;-70
2022/05/15 00:15:29;;;;;;;;;;;;;;;;;;6182408;23;19952;-70
2022/05/15 00:17:55;;;;;;;;;;;;;;;;;;6182496;23;19900;-70
2022/05/15 00:20:21;;;;;;;;;;;;;;;;;;6182856;23;20010;-70
2022/05/15 00:22:46;;;;;;;;;;;;;;;;;;6183223;23;19900;-70
2022/05/15 00:25:12;;;;;;;;;;;;;;;;;;6184005;23;20184;-70
2022/05/15 00:27:38;;;;;;;;;;;;;;;;;;6183351;23;20369;-70
2022/05/15 00:30:04;;;;;;;;;;;;;;;;;;6154295;23;19907;-70
2022/05/15 00:32:32;;;;;;;;;;;;;;;;;;6181848;23;19983;-70
2022/05/15 00:34:58;;;;;;;;;;;;;;;;;;6183331;23;19904;-70
2022/05/15 00:37:24;;;;;;;;;;;;;;;;;;6156661;23;19900;-70
2022/05/15 00:39:50;;;;;;;;;;;;;;;;;;6182569;23;20341;-70
2022/05/15 00:42:15;;;;;;;;;;;;;;;;;;6156719;23;19907;-70
2022/05/15 00:44:41;;;;;;;;;;;;;;;;;;6182396;23;19916;-70
2022/05/15 00:47:07;;;;;;;;;;;;;;;;;;6182991;23;19970;-70
2022/05/15 00:49:33;;;;;;;;;;;;;;;;;;6181699;23;19919;-70
2022/05/15 00:51:59;;;;;;;;;;;;;;;;;;6157220;23;19900;-70
2022/05/15 00:54:25;;;;;;;;;;;;;;;;;;6183336;23;20113;-70
2022/05/15 00:56:51;;;;;;;;;;;;;;;;;;6182930;23;19922;-70
2022/05/15 00:59:16;;;;;;;;;;;;;;;;;;6181418;23;19900;-70
2022/05/15 01:01:42;;;;;;;;;;;;;;;;;;6182855;23;19908;-70
2022/05/15 01:04:08;;;;;;;;;;;;;;;;;;6182291;23;19907;-70
2022/05/15 01:06:36;;;;;;;;;;;;;;;;;;6183086;23;19908;-70
2022/05/15 01:09:02;;;;;;;;;;;;;;;;;;6182621;23;20239;-70
2022/05/15 01:11:27;;;;;;;;;;;;;;;;;;6182432;23;19900;-70
2022/05/15 01:13:53;;;;;;;;;;;;;;;;;;6156352;23;19900;-70
2022/05/15 01:16:19;;;;;;;;;;;;;;;;;;6182702;23;20568;-70
2022/05/15 01:18:47;;;;;;;;;;;;;;;;;;6181712;23;19900;-70
2022/05/15 01:21:13;;;;;;;;;;;;;;;;;;6182539;23;19904;-70
2022/05/15 01:23:38;;;;;;;;;;;;;;;;;;6183305;23;19907;-70
2022/05/15 01:26:04;;;;;;;;;;;;;;;;;;6182543;23;19915;-70
2022/05/15 01:28:30;;;;;;;;;;;;;;;;;;6181939;23;19962;-70
2022/05/15 01:30:57;;;;;;;;;;;;;;;;;;6182647;23;19936;-70
2022/05/15 01:33:23;;;;;;;;;;;;;;;;;;6181912;23;19904;-70
2022/05/15 01:35:49;;;;;;;;;;;;;;;;;;6183066;23;19900;-70
2022/05/15 01:38:15;;;;;;;;;;;;;;;;;;6181515;23;20325;-70
2022/05/15 01:40:40;;;;;;;;;;;;;;;;;;6184958;23;19900;-70
2022/05/15 01:43:06;;;;;;;;;;;;;;;;;;6182068;23;19927;-70
2022/05/15 01:45:32;;;;;;;;;;;;;;;;;;6182120;23;19923;-70
2022/05/15 01:47:58;;;;;;;;;;;;;;;;;;6180580;23;19908;-70
2022/05/15 01:50:24;;;;;;;;;;;;;;;;;;6182170;23;20219;-70
2022/05/15 01:52:50;;;;;;;;;;;;;;;;;;6182766;23;19901;-70
2022/05/15 01:55:16;;;;;;;;;;;;;;;;;;6181897;23;20251;-70
2022/05/15 01:57:42;;;;;;;;;;;;;;;;;;6182758;23;19990;-70
2022/05/15 02:00:08;;;;;;;;;;;;;;;;;;6181773;23;19907;-70
2022/05/15 02:02:34;;;;;;;;;;;;;;;;;;6182456;23;20340;-70
2022/05/15 02:04:59;;;;;;;;;;;;;;;;;;6155302;23;19908;-70
2022/05/15 02:07:25;;;;;;;;;;;;;;;;;;6182413;23;19900;-70
2022/05/15 02:09:51;;;;;;;;;;;;;;;;;;6155069;23;20306;-70
2022/05/15 02:12:17;;;;;;;;;;;;;;;;;;6182014;23;19904;-70
2022/05/15 02:14:43;;;;;;;;;;;;;;;;;;6183557;23;19908;-69
2022/05/15 02:17:09;;;;;;;;;;;;;;;;;;6184892;23;19953;-70
2022/05/15 02:19:35;;;;;;;;;;;;;;;;;;6176142;23;19901;-71
2022/05/15 02:22:01;;;;;;;;;;;;;;;;;;6181939;23;20329;-70
2022/05/15 02:24:26;;;;;;;;;;;;;;;;;;6182321;23;19919;-70
2022/05/15 02:26:52;;;;;;;;;;;;;;;;;;6182626;23;19905;-70
2022/05/15 02:29:18;;;;;;;;;;;;;;;;;;6181511;23;19962;-70
2022/05/15 02:31:44;;;;;;;;;;;;;;;;;;6182131;23;19907;-70
2022/05/15 02:34:10;;;;;;;;;;;;;;;;;;6181064;23;20037;-70
2022/05/15 02:36:36;;;;;;;;;;;;;;;;;;6182410;23;19900;-70
2022/05/15 02:39:02;;;;;;;;;;;;;;;;;;6181065;23;19900;-70
2022/05/15 02:41:28;;;;;;;;;;;;;;;;;;6155661;23;19906;-70
2022/05/15 02:43:54;;;;;;;;;;;;;;;;;;6155099;23;19991;-70
2022/05/15 02:46:20;;;;;;;;;;;;;;;;;;6182099;23;19951;-70
2022/05/15 02:51:31;;;;;;;;;;;;;;;;;;6181884;23;20389;-70
2022/05/15 02:53:57;;;;;;;;;;;;;;;;;;6182609;23;19900;-70
2022/05/15 02:56:23;;;;;;;;;;;;;;;;;;6155308;23;20203;-70
2022/05/15 02:58:49;;;;;;;;;;;;;;;;;;6181117;23;19901;-70
2022/05/15 03:01:15;;;;;;;;;;;;;;;;;;6156064;23;20031;-70
2022/05/15 03:03:41;;;;;;;;;;;;;;;;;;6181591;23;20274;-70
2022/05/15 03:06:06;;;;;;;;;;;;;;;;;;6154789;23;19908;-70
2022/05/15 03:08:33;;;;;;;;;;;;;;;;;;6181708;23;19904;-70
2022/05/15 03:10:59;;;;;;;;;;;;;;;;;;6181892;23;19955;-70
2022/05/15 03:13:24;;;;;;;;;;;;;;;;;;6182370;23;19923;-70
2022/05/15 03:15:50;;;;;;;;;;;;;;;;;;6154881;23;19900;-70
2022/05/15 03:18:16;;;;;;;;;;;;;;;;;;6181792;23;20133;-70
2022/05/15 03:20:42;;;;;;;;;;;;;;;;;;6180532;23;20299;-70
2022/05/15 03:23:08;;;;;;;;;;;;;;;;;;6154715;23;19938;-70
2022/05/15 03:25:35;;;;;;;;;;;;;;;;;;6181637;23;19914;-70
2022/05/15 03:28:00;;;;;;;;;;;;;;;;;;6181758;23;19970;-70
2022/05/15 03:30:26;;;;;;;;;;;;;;;;;;6181215;23;20310;-70
2022/05/15 03:32:52;;;;;;;;;;;;;;;;;;6181881;23;19907;-70
2022/05/15 03:35:18;;;;;;;;;;;;;;;;;;6180619;23;19900;-70
2022/05/15 03:37:44;;;;;;;;;;;;;;;;;;6181918;23;19900;-70
2022/05/15 03:40:16;;;;;;;;;;;;;;;;;;6154716;23;19900;-70
2022/05/15 03:42:42;;;;;;;;;;;;;;;;;;6155344;23;19904;-70
2022/05/15 03:45:08;;;;;;;;;;;;;;;;;;6181733;23;19954;-70
2022/05/15 03:47:35;;;;;;;;;;;;;;;;;;6181866;23;19926;-70
2022/05/15 03:50:01;;;;;;;;;;;;;;;;;;6180765;23;19908;-70
2022/05/15 03:52:27;;;;;;;;;;;;;;;;;;6181953;23;19900;-70
2022/05/15 03:54:53;;;;;;;;;;;;;;;;;;6182015;23;19986;-70
2022/05/15 03:57:19;;;;;;;;;;;;;;;;;;6180960;23;19900;-70
2022/05/15 03:59:45;;;;;;;;;;;;;;;;;;6180615;23;19934;-70
2022/05/15 04:02:11;;;;;;;;;;;;;;;;;;6155161;23;19915;-70
2022/05/15 04:04:37;;;;;;;;;;;;;;;;;;6154223;23;19912;-71
2022/05/15 04:07:03;;;;;;;;;;;;;;;;;;6182189;23;19904;-70
2022/05/15 04:09:29;;;;;;;;;;;;;;;;;;6182828;23;19901;-70
2022/05/15 04:11:55;;;;;;;;;;;;;;;;;;6156991;23;19900;-70
2022/05/15 04:14:21;;;;;;;;;;;;;;;;;;6183245;23;20334;-70
2022/05/15 04:16:47;;;;;;;;;;;;;;;;;;6156433;23;19900;-70
2022/05/15 04:19:13;;;;;;;;;;;;;;;;;;6182795;23;20242;-70
2022/05/15 04:21:40;;;;;;;;;;;;;;;;;;6182843;23;19904;-70
2022/05/15 04:24:06;;;;;;;;;;;;;;;;;;6183811;23;19900;-70
2022/05/15 04:26:32;;;;;;;;;;;;;;;;;;6183444;23;19915;-70
2022/05/15 04:28:58;;;;;;;;;;;;;;;;;;6182988;23;19975;-70
2022/05/15 04:31:24;;;;;;;;;;;;;;;;;;6182479;23;20366;-70
2022/05/15 04:33:49;;;;;;;;;;;;;;;;;;6183583;23;20313;-70
2022/05/15 04:36:15;;;;;;;;;;;;;;;;;;6182192;23;19983;-70
2022/05/15 04:38:41;;;;;;;;;;;;;;;;;;6183101;23;19927;-70
2022/05/15 04:41:07;;;;;;;;;;;;;;;;;;6156208;23;19900;-70
2022/05/15 04:43:33;;;;;;;;;;;;;;;;;;6183936;23;19908;-70
2022/05/15 04:45:59;;;;;;;;;;;;;;;;;;6182909;23;20002;-70
2022/05/15 04:48:25;;;;;;;;;;;;;;;;;;6182722;23;19912;-70
2022/05/15 04:50:51;;;;;;;;;;;;;;;;;;6182320;23;19900;-70
2022/05/15 04:53:17;;;;;;;;;;;;;;;;;;6182997;23;20177;-70
2022/05/15 04:55:43;;;;;;;;;;;;;;;;;;6183162;23;19963;-70
2022/05/15 04:58:08;;;;;;;;;;;;;;;;;;6182937;23;19935;-70
2022/05/15 05:00:34;;;;;;;;;;;;;;;;;;6182607;23;19904;-70
2022/05/15 05:03:00;;;;;;;;;;;;;;;;;;6183088;23;19904;-70
2022/05/15 05:08:12;;;;;;;;;;;;;;;;;;6182559;23;20126;-64
2022/05/15 05:10:38;;;;;;;;;;;;;;;;;;6182797;23;19919;-65
2022/05/15 05:13:04;;;;;;;;;;;;;;;;;;6184245;23;19958;-65
2022/05/15 05:18:14;;;;;;;;;;;;;;;;;;6182098;23;19911;-64
2022/05/15 05:20:41;;;;;;;;;;;;;;;;;;6182807;23;19901;-65
2022/05/15 05:23:07;;;;;;;;;;;;;;;;;;6182104;23;19987;-65
2022/05/15 05:25:32;;;;;;;;;;;;;;;;;;6181679;23;20468;-65
2022/05/15 05:27:59;;;;;;;;;;;;;;;;;;6182738;23;19903;-64
2022/05/15 05:30:25;;;;;;;;;;;;;;;;;;6181954;23;19982;-64
2022/05/15 05:32:50;;;;;;;;;;;;;;;;;;6182958;23;19928;-65
2022/05/15 05:35:16;;;;;;;;;;;;;;;;;;6182563;23;19907;-65
2022/05/15 05:37:45;;;;;;;;;;;;;;;;;;6181240;23;19979;-64
2022/05/15 05:40:10;;;;;;;;;;;;;;;;;;6181765;23;20286;-65
2022/05/15 05:42:36;;;;;;;;;;;;;;;;;;6181711;23;19931;-65
2022/05/15 05:45:03;;;;;;;;;;;;;;;;;;6182816;23;19931;-64
2022/05/15 05:47:28;;;;;;;;;;;;;;;;;;6182803;23;19947;-64
2022/05/15 05:49:54;;;;;;;;;;;;;;;;;;6181947;23;19908;-65
2022/05/15 05:52:20;;;;;;;;;;;;;;;;;;6181669;23;19955;-64
2022/05/15 05:54:46;;;;;;;;;;;;;;;;;;6182907;23;19907;-65
2022/05/15 05:57:12;;;;;;;;;;;;;;;;;;6183021;23;19936;-64
2022/05/15 05:59:38;;;;;;;;;;;;;;;;;;6182185;23;19958;-65
2022/05/15 06:02:04;;;;;;;;;;;;;;;;;;6182838;23;19904;-65
2022/05/15 06:04:39;;;;;;;;;;;;;;;;;;6182551;23;19909;-65
2022/05/15 06:07:05;;;;;;;;;;;;;;;;;;6181858;23;19958;-65
2022/05/15 06:09:31;;;;;;;;;;;;;;;;;;6181840;23;19899;-65
2022/05/15 06:11:56;;;;;;;;;;;;;;;;;;6182170;23;20227;-65
2022/05/15 06:14:22;;;;;;;;;;;;;;;;;;6182350;23;19935;-64
2022/05/15 06:16:48;;;;;;;;;;;;;;;;;;6181901;23;19900;-65
2022/05/15 06:19:14;;;;;;;;;;;;;;;;;;6181921;23;19908;-64
2022/05/15 06:21:40;;;;;;;;;;;;;;;;;;6182030;23;20226;-65
2022/05/15 06:24:06;;;;;;;;;;;;;;;;;;6182085;23;20129;-65
2022/05/15 06:26:32;;;;;;;;;;;;;;;;;;6182431;23;19908;-65
2022/05/15 06:28:58;;;;;;;;;;;;;;;;;;6182203;23;19935;-65
2022/05/15 06:31:24;;;;;;;;;;;;;;;;;;6182019;23;19984;-65
2022/05/15 06:33:49;;;;;;;;;;;;;;;;;;6182125;23;20258;-65
2022/05/15 06:36:15;;;;;;;;;;;;;;;;;;6182824;23;19901;-64
2022/05/15 06:38:42;;;;;;;;;;;;;;;;;;6180229;23;20329;-65
2022/05/15 06:41:08;;;;;;;;;;;;;;;;;;6182258;23;19900;-65
2022/05/15 06:43:34;;;;;;;;;;;;;;;;;;6182302;23;19911;-65
2022/05/15 06:46:00;;;;;;;;;;;;;;;;;;6181652;23;19908;-65
2022/05/15 06:48:26;;;;;;;;;;;;;;;;;;6182196;23;20226;-65
2022/05/15 06:50:52;;;;;;;;;;;;;;;;;;6155849;23;19908;-65
2022/05/15 06:53:18;;;;;;;;;;;;;;;;;;6180978;23;19901;-65
2022/05/15 06:58:28;;;;;;;;;;;;;;;;;;6181737;23;19946;-64
2022/05/15 07:00:54;;;;;;;;;;;;;;;;;;6181977;23;19904;-65
2022/05/15 07:03:20;;;;;;;;;;;;;;;;;;6181471;23;20585;-65
2022/05/15 07:05:46;;;;;;;;;;;;;;;;;;6181203;23;19908;-65
2022/05/15 07:08:15;;;;;;;;;;;;;;;;;;6180742;23;20282;-64
2022/05/15 07:10:41;;;;;;;;;;;;;;;;;;6181474;23;20258;-65
2022/05/15 07:13:06;;;;;;;;;;;;;;;;;;6181967;23;19900;-65
2022/05/15 07:15:32;;;;;;;;;;;;;;;;;;6181735;23;19901;-65
2022/05/15 07:17:58;;;;;;;;;;;;;;;;;;6181137;23;19927;-65
2022/05/15 07:20:24;;;;;;;;;;;;;;;;;;6181246;23;19939;-65
2022/05/15 07:22:50;;;;;;;;;;;;;;;;;;6154934;23;20035;-65
2022/05/15 07:25:16;;;;;;;;;;;;;;;;;;6180747;23;20015;-65
2022/05/15 07:27:42;;;;;;;;;;;;;;;;;;6180985;23;19980;-65
2022/05/15 07:30:08;;;;;;;;;;;;;;;;;;6181127;23;19926;-65
2022/05/15 07:32:33;;;;;;;;;;;;;;;;;;6182075;23;19958;-65
2022/05/15 07:34:59;;;;;;;;;;;;;;;;;;6181290;23;19954;-65
2022/05/15 07:37:25;;;;;;;;;;;;;;;;;;6180898;23;19907;-65
2022/05/15 07:39:51;;;;;;;;;;;;;;;;;;6180954;23;19907;-65
2022/05/15 07:42:17;;;;;;;;;;;;;;;;;;6182887;23;19908;-64
2022/05/15 07:44:43;;;;;;;;;;;;;;;;;;6183940;23;20230;-65
2022/05/15 07:47:09;;;;;;;;;;;;;;;;;;6183448;23;19900;-65
2022/05/15 07:49:35;;;;;;;;;;;;;;;;;;6182610;23;20313;-65
2022/05/15 07:52:01;;;;;;;;;;;;;;;;;;6183790;23;19955;-65
2022/05/15 07:54:27;;;;;;;;;;;;;;;;;;6183013;23;20528;-62
2022/05/15 07:56:52;;;;;;;;;;;;;;;;;;6183849;23;19954;-62
2022/05/15 07:59:18;;;;;;;;;;;;;;;;;;6181925;23;19908;-62
2022/05/15 08:01:44;;;;;;;;;;;;;;;;;;6183349;23;19911;-62
2022/05/15 08:04:10;;;;;;;;;;;;;;;;;;6182818;23;20063;-63
2022/05/15 08:09:21;;;;;;;;;;;;;;;;;;6182021;23;19915;-63
2022/05/15 08:11:46;;;;;;;;;;;;;;;;;;6183415;23;19900;-62
2022/05/15 08:14:12;;;;;;;;;;;;;;;;;;6183443;23;19900;-63
2022/05/15 08:16:38;;;;;;;;;;;;;;;;;;6182855;23;19904;-65
2022/05/15 08:24:34;;;;;;;;;;;;;;;;;;6182700;23;19907;-65
2022/05/15 08:26:59;;;;;;;;;;;;;;;;;;6182881;23;19900;-65
2022/05/15 08:29:25;;;;;;;;;;;;;;;;;;6182788;23;19900;-64
2022/05/15 08:31:51;;;;;;;;;;;;;;;;;;6183132;23;19900;-64
2022/05/15 08:34:17;;;;;;;;;;;;;;;;;;6182346;23;19904;-65
2022/05/15 08:36:44;;;;;;;;;;;;;;;;;;6183025;23;20331;-65
2022/05/15 08:39:10;;;;;;;;;;;;;;;;;;6181816;23;19900;-64
2022/05/15 08:41:36;;;;;;;;;;;;;;;;;;6182132;23;19901;-65
2022/05/15 08:44:02;;;;;;;;;;;;;;;;;;6183463;23;19908;-64
2022/05/15 08:46:28;;;;;;;;;;;;;;;;;;6183115;23;19912;-64
2022/05/15 08:48:54;;;;;;;;;;;;;;;;;;6182836;23;19900;-65
2022/05/15 08:51:20;;;;;;;;;;;;;;;;;;6183127;23;19900;-65
2022/05/15 08:53:46;;;;;;;;;;;;;;;;;;6182507;23;20306;-64
2022/05/15 08:56:12;;;;;;;;;;;;;;;;;;6182779;23;19904;-64
2022/05/15 08:58:38;;;;;;;;;;;;;;;;;;6182279;23;19904;-65
2022/05/15 09:01:05;;;;;;;;;;;;;;;;;;6183119;23;20416;-66
2022/05/15 09:03:35;;;;;;;;;;;;;;;;;;6182801;23;19900;-65
2022/05/15 09:06:01;;;;;;;;;;;;;;;;;;6182733;23;19912;-64
2022/05/15 09:08:27;;;;;;;;;;;;;;;;;;6180311;23;19916;-65
2022/05/15 09:10:53;;;;;;;;;;;;;;;;;;6182470;23;20303;-65
2022/05/15 09:13:18;;;;;;;;;;;;;;;;;;6182887;23;19911;-64
2022/05/15 09:15:44;;;;;;;;;;;;;;;;;;6182945;23;20307;-65
2022/05/15 09:18:10;;;;;;;;;;;;;;;;;;6182127;23;19958;-64
2022/05/15 09:20:36;;;;;;;;;;;;;;;;;;6182980;23;20243;-64
2022/05/15 09:23:02;;;;;;;;;;;;;;;;;;6182931;23;19901;-66
2022/05/15 09:25:28;;;;;;;;;;;;;;;;;;6182075;23;19912;-64
2022/05/15 09:27:54;;;;;;;;;;;;;;;;;;6183240;23;20516;-63
2022/05/15 09:30:20;;;;;;;;;;;;;;;;;;6182059;23;19908;-63
2022/05/15 09:32:46;;;;;;;;;;;;;;;;;;6182891;23;20528;-64
2022/05/15 09:35:11;;;;;;;;;;;;;;;;;;6182580;23;19907;-64
2022/05/15 09:40:22;;;;;;;;;;;;;;;;;;6181965;23;19907;-64
2022/05/15 09:45:32;;;;;;;;;;;;;;;;;;6182566;23;19915;-63
2022/05/15 09:47:58;;;;;;;;;;;;;;;;;;6181719;23;19930;-63
2022/05/15 09:50:24;;;;;;;;;;;;;;;;;;6181859;23;20281;-63
2022/05/15 09:52:50;;;;;;;;;;;;;;;;;;6182358;23;19915;-63
2022/05/15 09:55:18;;;;;;;;;;;;;;;;;;6181968;23;19901;-63
2022/05/15 09:57:44;;;;;;;;;;;;;;;;;;6182612;23;19907;-63
2022/05/15 10:00:10;;;;;;;;;;;;;;;;;;6181740;23;19904;-63
2022/05/15 10:02:37;;;;;;;;;;;;;;;;;;6182113;23;20303;-63
2022/05/15 10:05:03;;;;;;;;;;;;;;;;;;6181589;23;19912;-63
2022/05/15 10:07:29;;;;;;;;;;;;;;;;;;6156098;23;19986;-63
2022/05/15 10:09:55;;;;;;;;;;;;;;;;;;6181199;23;19951;-63
2022/05/15 10:12:21;;;;;;;;;;;;;;;;;;6156245;23;19908;-63
2022/05/15 10:14:49;;;;;;;;;;;;;;;;;;6182653;23;20376;-63
2022/05/15 10:17:15;;;;;;;;;;;;;;;;;;6180990;23;19904;-63
2022/05/15 10:19:41;;;;;;;;;;;;;;;;;;6181288;23;19969;-64
2022/05/15 10:22:07;;;;;;;;;;;;;;;;;;6182194;23;19904;-63
2022/05/15 10:24:33;;;;;;;;;;;;;;;;;;6181696;23;19900;-64
2022/05/15 10:26:59;;;;;;;;;;;;;;;;;;6181994;23;19975;-64
2022/05/15 10:29:25;;;;;;;;;;;;;;;;;;6181461;23;19904;-62
2022/05/15 10:31:54;;;;;;;;;;;;;;;;;;6182037;23;19900;-62
2022/05/15 10:34:23;;;;;;;;;;;;;;;;;;6181951;23;19900;-62
2022/05/15 10:36:49;;;;;;;;;;;;;;;;;;6182782;23;19900;-62
2022/05/15 10:39:15;;;;;;;;;;;;;;;;;;6180741;23;20330;-62
2022/05/15 10:41:41;;;;;;;;;;;;;;;;;;6181786;23;20273;-62
2022/05/15 10:44:09;;;;;;;;;;;;;;;;;;6182224;23;19934;-62
2022/05/15 10:46:35;;;;;;;;;;;;;;;;;;6181778;23;19966;-62
2022/05/15 10:49:01;;;;;;;;;;;;;;;;;;6181613;23;19904;-62
2022/05/15 10:51:26;;;;;;;;;;;;;;;;;;6181931;23;19908;-62
2022/05/15 10:59:23;;;;;;;;;;;;;;;;;;6181622;23;19907;-62
2022/05/15 11:01:49;;;;;;;;;;;;;;;;;;6182011;23;19900;-62
2022/05/15 11:04:15;;;;;;;;;;;;;;;;;;6180446;23;20286;-62
2022/05/15 11:06:41;;;;;;;;;;;;;;;;;;6182116;23;20274;-62
2022/05/15 11:09:06;;;;;;;;;;;;;;;;;;6181084;23;20323;-62
2022/05/15 11:11:32;;;;;;;;;;;;;;;;;;6182024;23;19900;-62
2022/05/15 11:13:59;;;;;;;;;;;;;;;;;;6181776;23;19931;-62
2022/05/15 11:16:24;;;;;;;;;;;;;;;;;;6181499;23;19908;-62
2022/05/15 11:18:50;;;;;;;;;;;;;;;;;;6183423;23;19900;-62
2022/05/15 11:21:16;;;;;;;;;;;;;;;;;;6184938;23;19955;-62
2022/05/15 11:23:42;;;;;;;;;;;;;;;;;;6186349;23;19942;-63
2022/05/15 11:26:08;;;;;;;;;;;;;;;;;;6183981;23;20342;-62
2022/05/15 11:28:34;;;;;;;;;;;;;;;;;;6186544;23;19904;-62
2022/05/15 11:31:00;;;;;;;;;;;;;;;;;;6186856;23;19901;-62
2022/05/15 11:33:26;;;;;;;;;;;;;;;;;;6186813;23;20384;-63
2022/05/15 11:35:52;;;;;;;;;;;;;;;;;;6186352;23;19932;-63
2022/05/15 11:38:18;;;;;;;;;;;;;;;;;;6185773;23;19939;-63
2022/05/15 11:40:44;;;;;;;;;;;;;;;;;;6185731;23;19900;-63
2022/05/15 11:43:10;;;;;;;;;;;;;;;;;;6184546;23;19907;-63
2022/05/15 11:45:36;;;;;;;;;;;;;;;;;;6184177;23;19912;-63
2022/05/15 11:48:01;;;;;;;;;;;;;;;;;;6183370;23;19900;-63
2022/05/15 11:50:27;;;;;;;;;;;;;;;;;;6183612;23;19995;-63
2022/05/15 11:52:53;;;;;;;;;;;;;;;;;;6184662;23;19904;-63
2022/05/15 11:55:19;;;;;;;;;;;;;;;;;;6183028;23;19900;-63
2022/05/15 11:57:46;;;;;;;;;;;;;;;;;;6157187;23;19983;-63
2022/05/15 12:00:11;;;;;;;;;;;;;;;;;;6183049;23;19912;-63
2022/05/15 12:02:37;;;;;;;;;;;;;;;;;;6157666;23;19900;-63
2022/05/15 12:05:03;;;;;;;;;;;;;;;;;;6156934;23;19940;-63
2022/05/15 12:07:29;;;;;;;;;;;;;;;;;;6183274;23;20337;-63
2022/05/15 12:09:55;;;;;;;;;;;;;;;;;;6182234;23;19908;-63
2022/05/15 12:12:22;;;;;;;;;;;;;;;;;;6183459;23;19979;-63
2022/05/15 12:14:49;;;;;;;;;;;;;;;;;;6183632;23;19904;-63
2022/05/15 12:17:18;;;;;;;;;;;;;;;;;;6182684;23;19970;-63
2022/05/15 12:19:44;;;;;;;;;;;;;;;;;;6182745;23;20266;-63
2022/05/15 12:22:13;;;;;;;;;;;;;;;;;;6183213;23;19907;-63
2022/05/15 12:24:39;;;;;;;;;;;;;;;;;;6183327;23;19905;-63
2022/05/15 12:27:05;;;;;;;;;;;;;;;;;;6182487;23;19911;-63
2022/05/15 12:29:31;;;;;;;;;;;;;;;;;;6181815;23;19958;-63
2022/05/15 12:31:56;;;;;;;;;;;;;;;;;;6183533;23;20178;-63
2022/05/15 12:34:22;;;;;;;;;;;;;;;;;;6182527;23;19900;-63
2022/05/15 12:36:48;;;;;;;;;;;;;;;;;;6182679;23;19900;-63
2022/05/15 12:39:15;;;;;;;;;;;;;;;;;;6183186;23;19927;-63
2022/05/15 12:41:41;;;;;;;;;;;;;;;;;;6182124;23;19986;-63
2022/05/15 12:44:08;;;;;;;;;;;;;;;;;;6183034;23;20239;-63
2022/05/15 12:46:34;;;;;;;;;;;;;;;;;;6182876;23;19931;-63
2022/05/15 12:49:00;;;;;;;;;;;;;;;;;;6183100;23;20260;-62
2022/05/15 12:51:25;;;;;;;;;;;;;;;;;;6183196;23;19907;-63
2022/05/15 12:53:54;;;;;;;;;;;;;;;;;;6183072;23;19982;-63
2022/05/15 12:56:20;;;;;;;;;;;;;;;;;;6181767;23;19907;-63
2022/05/15 12:58:46;;;;;;;;;;;;;;;;;;6182528;23;19900;-63
2022/05/15 13:01:11;;;;;;;;;;;;;;;;;;6182902;23;20194;-63
2022/05/15 13:03:37;;;;;;;;;;;;;;;;;;6182976;23;19998;-63
2022/05/15 13:06:03;;;;;;;;;;;;;;;;;;6156080;23;20226;-64
2022/05/15 13:08:29;;;;;;;;;;;;;;;;;;6182793;23;19907;-64
2022/05/15 13:10:56;;;;;;;;;;;;;;;;;;6180800;23;19987;-65
2022/05/15 13:13:22;;;;;;;;;;;;;;;;;;6182919;23;19922;-65
2022/05/15 13:15:48;;;;;;;;;;;;;;;;;;6182993;23;19907;-65
2022/05/15 13:18:14;;;;;;;;;;;;;;;;;;6182251;23;20243;-65
2022/05/15 13:20:40;;;;;;;;;;;;;;;;;;6182918;23;19908;-65
2022/05/15 13:23:07;;;;;;;;;;;;;;;;;;6182974;23;19900;-64
2022/05/15 13:25:34;;;;;;;;;;;;;;;;;;6155491;23;19966;-65
2022/05/15 13:27:59;;;;;;;;;;;;;;;;;;6182206;23;19966;-65
2022/05/15 13:30:26;;;;;;;;;;;;;;;;;;6182752;23;20281;-64
2022/05/15 13:32:51;;;;;;;;;;;;;;;;;;6182583;23;19932;-65
2022/05/15 13:35:17;;;;;;;;;;;;;;;;;;6182860;23;20226;-65
2022/05/15 13:37:43;;;;;;;;;;;;;;;;;;6182649;23;19975;-65
2022/05/15 13:45:38;;;;;;;;;;;;;;;;;;6181494;23;20055;-65
2022/05/15 13:48:04;;;;;;;;;;;;;;;;;;6181751;23;20363;-64
2022/05/15 13:50:30;;;;;;;;;;;;;;;;;;6182045;23;19900;-64
2022/05/15 13:52:56;;;;;;;;;;;;;;;;;;6182502;23;19947;-64
2022/05/15 13:58:07;;;;;;;;;;;;;;;;;;6163405;23;19977;-66
2022/05/15 14:00:33;;;;;;;;;;;;;;;;;;6152978;23;19904;-66
2022/05/15 14:02:59;;;;;;;;;;;;;;;;;;6152913;23;19907;-66
2022/05/15 14:05:24;;;;;;;;;;;;;;;;;;6152591;23;19991;-67
2022/05/15 14:07:50;;;;;;;;;;;;;;;;;;6153049;23;19942;-68
2022/05/15 14:10:16;;;;;;;;;;;;;;;;;;6152258;23;19911;-66
2022/05/15 14:12:42;;;;;;;;;;;;;;;;;;6152511;23;19901;-66
2022/05/15 14:15:08;;;;;;;;;;;;;;;;;;6153006;23;19936;-67
2022/05/15 14:17:34;;;;;;;;;;;;;;;;;;6152725;23;19900;-66
2022/05/15 14:20:00;;;;;;;;;;;;;;;;;;6152444;23;19943;-66
2022/05/15 14:22:26;;;;;;;;;;;;;;;;;;6152406;23;19951;-66
2022/05/15 14:24:52;;;;;;;;;;;;;;;;;;6152088;23;20311;-66
2022/05/15 14:27:18;;;;;;;;;;;;;;;;;;6152000;23;19901;-66
2022/05/15 14:29:44;;;;;;;;;;;;;;;;;;6152642;23;19900;-66
2022/05/15 14:32:10;;;;;;;;;;;;;;;;;;6150420;23;20297;-66
2022/05/15 14:34:36;;;;;;;;;;;;;;;;;;6152645;23;19936;-66
2022/05/15 14:37:02;;;;;;;;;;;;;;;;;;6152576;23;19901;-66
2022/05/15 14:39:30;;;;;;;;;;;;;;;;;;6151246;23;19901;-66
2022/05/15 14:41:58;;;;;;;;;;;;;;;;;;6151985;23;19904;-66
2022/05/15 14:44:24;;;;;;;;;;;;;;;;;;6152654;23;19901;-66
2022/05/15 14:46:51;;;;;;;;;;;;;;;;;;6151839;23;20011;-66
2022/05/15 14:49:17;;;;;;;;;;;;;;;;;;6151761;23;20204;-66
2022/05/15 14:51:43;;;;;;;;;;;;;;;;;;6152122;23;19967;-67
2022/05/15 14:54:09;;;;;;;;;;;;;;;;;;6151736;23;19901;-66
2022/05/15 14:56:35;;;;;;;;;;;;;;;;;;6151590;23;19907;-66
2022/05/15 14:59:00;;;;;;;;;;;;;;;;;;6180587;23;19909;-66
2022/05/15 15:01:27;;;;;;;;;;;;;;;;;;6182453;23;19936;-66
2022/05/15 15:03:52;;;;;;;;;;;;;;;;;;6182678;23;19907;-66
2022/05/15 15:06:18;;;;;;;;;;;;;;;;;;6182091;23;19908;-66
2022/05/15 15:08:44;;;;;;;;;;;;;;;;;;6181585;23;19900;-66
2022/05/15 15:11:10;;;;;;;;;;;;;;;;;;6156185;23;19904;-66
2022/05/15 15:13:36;;;;;;;;;;;;;;;;;;6182116;23;20215;-66
2022/05/15 15:16:02;;;;;;;;;;;;;;;;;;6182462;23;19940;-66
2022/05/15 15:18:28;;;;;;;;;;;;;;;;;;6181750;23;19900;-66
2022/05/15 15:20:54;;;;;;;;;;;;;;;;;;6182243;23;19939;-66
2022/05/15 15:23:20;;;;;;;;;;;;;;;;;;6182847;23;19935;-67
2022/05/15 15:25:52;;;;;;;;;;;;;;;;;;6182427;23;20397;-67
2022/05/15 15:28:18;;;;;;;;;;;;;;;;;;6180296;23;19905;-66
2022/05/15 15:30:44;;;;;;;;;;;;;;;;;;6181546;23;19907;-66
2022/05/15 15:33:10;;;;;;;;;;;;;;;;;;6181459;23;19924;-65
2022/05/15 15:35:36;;;;;;;;;;;;;;;;;;6180995;23;19939;-66
2022/05/15 15:38:15;;;;;;;;;;;;;;;;;;6181050;23;19904;-66
2022/05/15 15:40:42;;;;;;;;;;;;;;;;;;6180901;23;19920;-66
2022/05/15 15:43:08;;;;;;;;;;;;;;;;;;6181092;23;20281;-66
2022/05/15 15:45:34;;;;;;;;;;;;;;;;;;6182186;23;19915;-66
2022/05/15 15:47:59;;;;;;;;;;;;;;;;;;6182434;23;20371;-66
2022/05/15 15:50:40;;;;;;;;;;;;;;;;;;6184761;23;19906;-66
2022/05/15 15:53:06;;;;;;;;;;;;;;;;;;6183803;23;19904;-65
2022/05/15 15:55:32;;;;;;;;;;;;;;;;;;6183847;23;19900;-65
2022/05/15 15:57:58;;;;;;;;;;;;;;;;;;6179610;23;19908;-67
2022/05/15 16:00:23;;;;;;;;;;;;;;;;;;6179555;23;19955;-66
2022/05/15 16:02:49;;;;;;;;;;;;;;;;;;6180411;23;20302;-66
2022/05/15 16:05:15;;;;;;;;;;;;;;;;;;6182448;23;20295;-65
2022/05/15 16:07:41;;;;;;;;;;;;;;;;;;6183186;23;19904;-66
2022/05/15 16:10:07;;;;;;;;;;;;;;;;;;6183344;23;19900;-66
2022/05/15 16:12:33;;;;;;;;;;;;;;;;;;6182746;23;19904;-66
2022/05/15 16:15:00;;;;;;;;;;;;;;;;;;6184010;23;20299;-66
2022/05/15 16:17:26;;;;;;;;;;;;;;;;;;6183417;23;19912;-66
2022/05/15 16:19:52;;;;;;;;;;;;;;;;;;6183204;23;20314;-66
2022/05/15 16:22:20;;;;;;;;;;;;;;;;;;6183823;23;20310;-66
2022/05/15 16:24:46;;;;;;;;;;;;;;;;;;6183761;23;19924;-67
2022/05/15 16:27:12;;;;;;;;;;;;;;;;;;6157293;23;20333;-66
2022/05/15 16:29:38;;;;;;;;;;;;;;;;;;6182194;23;19950;-68
2022/05/15 16:32:04;;;;;;;;;;;;;;;;;;6157298;23;19904;-65
2022/05/15 16:34:30;;;;;;;;;;;;;;;;;;6183596;23;19907;-66
2022/05/15 16:36:55;;;;;;;;;;;;;;;;;;6183954;23;19904;-66
2022/05/15 16:39:21;;;;;;;;;;;;;;;;;;6183012;23;20316;-67
2022/05/15 16:41:47;;;;;;;;;;;;;;;;;;6184475;23;19900;-68
2022/05/15 16:44:13;;;;;;;;;;;;;;;;;;6156702;23;19907;-67
2022/05/15 16:46:39;;;;;;;;;;;;;;;;;;6185584;23;19912;-67
2022/05/15 16:49:05;;;;;;;;;;;;;;;;;;6185045;23;20222;-67
2022/05/15 16:51:31;;;;;;;;;;;;;;;;;;6184993;23;20270;-67
2022/05/15 16:53:57;;;;;;;;;;;;;;;;;;6185222;23;19901;-67
2022/05/15 16:56:23;;;;;;;;;;;;;;;;;;6186055;23;19904;-68
2022/05/15 16:58:49;;;;;;;;;;;;;;;;;;6182680;23;19908;-68
2022/05/15 17:01:15;;;;;;;;;;;;;;;;;;6183276;23;20325;-67
2022/05/15 17:03:41;;;;;;;;;;;;;;;;;;6182524;23;19976;-67
2022/05/15 17:06:09;;;;;;;;;;;;;;;;;;6181779;23;19940;-68
2022/05/15 17:08:35;;;;;;;;;;;;;;;;;;6181879;23;19904;-67
2022/05/15 17:11:01;;;;;;;;;;;;;;;;;;6182654;23;19901;-67
2022/05/15 17:13:27;;;;;;;;;;;;;;;;;;6181142;23;19900;-67
2022/05/15 17:15:53;;;;;;;;;;;;;;;;;;6182846;23;19983;-67